KEVB

New Smyrna Beach Municipal Airport

New Smyrna Beach, Florida, USA
METAR KEVB 190147Z 00000KT 10SM SKC 26/23 A2996 RMK LAST
Observed Flight Rules
Sep-19 @ 01:47 UTC (3 hours ago) Visual Flight Rules
Visibility Clouds
10 miles
  • Clear skies
Temperatures Readings
Current 26°C / 79°F
Dewpoint 23°C / 73°F
Humidity 84%
Altimeter 29.96" Hg
Pressure 1015 hPa
Elevation 3
METAR KEVB 190147Z 00000KT 10SM SKC 26/23 A2996 RMK LAST
Observed Flight Rules
Sep-19 @ 01:47 UTC
(3 hours ago)
VFR
Clouds
  • Clear skies
Temperature Dewpoint
26°C / 79°F 23°C / 73°F
Humidity Altimeter Pressure
84% 29.96" Hg 1015 hPa